Time;durP1;ratioP1;P1;durP2;ratioP2;P2;SDS_P1;SDS_P2;PMS_P1;PMS_P2;Temp;Humidity;BMP_temperature;BMP_pressure;BME280_temperature;BME280_humidity;BME280_pressure;Samples;Min_cycle;Max_cycle;Signal;HPM_P1;HPM_P2
2021/11/13 00:00:36;;;;;;;15.55;10.52;;;5.40;86.50;;;;;;5059204;28;20028;-67
2021/11/13 00:03:01;;;;;;;22.08;10.75;;;5.40;86.60;;;;;;5059661;28;20029;-67
2021/11/13 00:05:27;;;;;;;25.77;10.90;;;5.40;86.50;;;;;;5053834;28;20052;-67
2021/11/13 00:07:53;;;;;;;15.93;10.65;;;5.40;87.30;;;;;;5050081;28;20057;-67
2021/11/13 00:10:26;;;;;;;21.75;10.85;;;5.40;86.50;;;;;;5053616;28;20040;-67
2021/11/13 00:12:53;;;;;;;15.90;10.77;;;5.50;86.50;;;;;;5052244;28;20247;-65
2021/11/13 00:15:21;;;;;;;18.65;10.90;;;5.50;86.50;;;;;;5051033;28;20036;-65
2021/11/13 00:17:48;;;;;;;23.23;12.10;;;5.50;86.50;;;;;;5052540;28;20043;-67
2021/11/13 00:20:14;;;;;;;18.00;11.27;;;5.50;86.60;;;;;;5058063;28;20060;-67
2021/11/13 00:22:40;;;;;;;16.75;11.48;;;5.50;86.60;;;;;;5053573;28;20024;-66
2021/11/13 00:25:07;;;;;;;17.15;11.40;;;5.60;86.70;;;;;;5054576;28;20554;-67
2021/11/13 00:27:32;;;;;;;28.98;12.10;;;5.60;86.80;;;;;;5050700;28;20044;-67
2021/11/13 00:29:58;;;;;;;17.50;12.00;;;5.60;86.80;;;;;;5052758;28;20044;-67
2021/11/13 00:32:24;;;;;;;22.85;12.57;;;5.60;86.70;;;;;;5052578;28;20043;-67
2021/11/13 00:34:50;;;;;;;37.45;12.35;;;5.60;86.70;;;;;;5052135;28;20036;-67
2021/11/13 00:37:16;;;;;;;19.95;12.43;;;5.60;86.80;;;;;;5050185;28;21303;-67
2021/11/13 00:39:41;;;;;;;35.35;12.93;;;5.70;86.80;;;;;;5051509;28;20029;-67
2021/11/13 00:42:07;;;;;;;16.77;12.25;;;5.70;86.80;;;;;;5054469;28;20021;-67
2021/11/13 00:44:34;;;;;;;24.05;12.65;;;5.70;86.90;;;;;;5053932;28;20495;-66
2021/11/13 00:47:00;;;;;;;21.92;12.85;;;5.70;86.90;;;;;;5053613;28;20024;-67
2021/11/13 00:49:26;;;;;;;20.67;13.00;;;5.70;86.90;;;;;;5053592;28;20036;-67
2021/11/13 00:51:52;;;;;;;26.42;13.13;;;5.70;86.90;;;;;;5055547;28;20029;-66
2021/11/13 00:54:18;;;;;;;26.92;13.27;;;5.80;87.00;;;;;;5054479;28;20044;-67
2021/11/13 00:56:43;;;;;;;16.92;11.98;;;5.80;87.00;;;;;;5050260;28;20093;-66
2021/11/13 00:59:09;;;;;;;20.63;12.95;;;5.80;87.00;;;;;;5052853;28;20099;-65
2021/11/13 01:01:34;;;;;;;19.75;13.45;;;5.80;87.00;;;;;;5055881;28;20569;-67
2021/11/13 01:04:00;;;;;;;22.35;13.48;;;5.90;87.00;;;;;;5058023;28;20047;-67
2021/11/13 01:06:26;;;;;;;20.52;12.10;;;5.90;87.00;;;;;;5054995;28;20453;-67
2021/11/13 01:08:51;;;;;;;21.85;13.32;;;5.90;87.00;;;;;;5054028;28;20462;-67
2021/11/13 01:11:17;;;;;;;20.35;12.80;;;6.00;87.00;;;;;;5054441;28;20415;-66
2021/11/13 01:13:44;;;;;;;48.72;13.27;;;6.00;87.00;;;;;;5056238;28;20040;-67
2021/11/13 01:16:10;;;;;;;29.98;13.55;;;6.00;87.00;;;;;;5052812;28;20033;-65
2021/11/13 01:18:38;;;;;;;19.27;12.50;;;6.00;87.00;;;;;;5052313;28;20040;-67
2021/11/13 01:21:04;;;;;;;23.50;13.02;;;6.00;86.90;;;;;;5055200;28;20419;-67
2021/11/13 01:23:30;;;;;;;16.98;12.07;;;6.00;86.90;;;;;;5052844;28;20701;-67
2021/11/13 01:25:55;;;;;;;17.15;11.48;;;6.10;87.00;;;;;;5050518;28;20029;-67
2021/11/13 01:28:21;;;;;;;18.67;12.57;;;6.10;87.00;;;;;;5051355;28;20037;-66
2021/11/13 01:30:47;;;;;;;21.30;13.55;;;6.10;87.00;;;;;;5050505;28;20086;-68
2021/11/13 01:33:13;;;;;;;20.83;13.32;;;6.20;87.00;;;;;;5054215;28;20039;-66
2021/11/13 01:35:38;;;;;;;21.20;13.43;;;6.20;86.90;;;;;;5054338;28;20037;-66
2021/11/13 01:38:04;;;;;;;19.77;13.23;;;6.20;86.90;;;;;;5052101;28;20173;-67
2021/11/13 01:40:30;;;;;;;22.05;12.52;;;6.20;86.90;;;;;;5052894;28;20124;-66
2021/11/13 01:42:58;;;;;;;28.83;13.45;;;6.30;87.80;;;;;;5052945;28;20036;-66
2021/11/13 01:45:25;;;;;;;20.63;13.02;;;6.30;87.00;;;;;;5052229;28;20029;-64
2021/11/13 01:47:51;;;;;;;20.67;13.48;;;6.30;86.90;;;;;;5053389;28;20036;-67
2021/11/13 01:50:21;;;;;;;20.08;13.40;;;6.30;86.90;;;;;;5052983;28;20041;-66
2021/11/13 01:52:48;;;;;;;21.60;13.50;;;6.30;86.90;;;;;;5052281;28;20033;-66
2021/11/13 01:55:16;;;;;;;19.70;12.85;;;6.40;87.00;;;;;;5052640;28;20055;-66
2021/11/13 01:57:46;;;;;;;21.83;14.13;;;6.40;86.90;;;;;;5050814;28;20037;-67
2021/11/13 02:00:16;;;;;;;20.13;13.23;;;6.40;86.80;;;;;;5057671;28;20614;-66
2021/11/13 02:02:42;;;;;;;24.63;14.50;;;6.40;86.80;;;;;;5056837;28;20708;-67
2021/11/13 02:05:08;;;;;;;22.52;14.20;;;6.50;86.90;;;;;;5056975;28;20112;-67
2021/11/13 02:07:33;;;;;;;22.90;14.52;;;6.50;86.90;;;;;;5056100;28;20074;-67
2021/11/13 02:09:59;;;;;;;23.38;14.50;;;6.50;86.80;;;;;;5057317;28;20032;-66
2021/11/13 02:12:24;;;;;;;22.45;14.57;;;6.50;86.80;;;;;;5056381;28;20036;-66
2021/11/13 02:14:50;;;;;;;21.60;14.32;;;6.50;86.80;;;;;;5057658;28;20033;-66
2021/11/13 02:17:15;;;;;;;23.13;14.48;;;6.50;86.80;;;;;;5053691;28;21822;-66
2021/11/13 02:19:41;;;;;;;24.60;15.27;;;6.50;86.70;;;;;;5055897;28;20037;-67
2021/11/13 02:22:07;;;;;;;23.13;14.57;;;6.50;86.70;;;;;;5055959;28;21009;-66
2021/11/13 02:24:32;;;;;;;21.35;14.40;;;6.60;86.70;;;;;;5052984;28;20033;-66
2021/11/13 02:26:58;;;;;;;22.45;14.50;;;6.50;86.60;;;;;;5055522;28;20036;-67
2021/11/13 02:29:24;;;;;;;24.20;14.32;;;6.60;86.70;;;;;;5055682;28;20545;-67
2021/11/13 02:31:50;;;;;;;22.48;13.60;;;6.60;86.70;;;;;;5052998;28;20037;-67
2021/11/13 02:34:16;;;;;;;23.08;14.50;;;6.50;86.60;;;;;;5053969;28;20055;-67
2021/11/13 02:36:42;;;;;;;24.33;13.93;;;6.60;86.60;;;;;;5054576;28;20032;-66
2021/11/13 02:39:11;;;;;;;25.58;15.52;;;6.60;86.50;;;;;;5054619;28;20127;-67
2021/11/13 02:41:37;;;;;;;26.70;15.85;;;6.60;86.50;;;;;;5057217;28;20043;-66
2021/11/13 02:44:05;;;;;;;25.13;15.77;;;6.60;86.50;;;;;;5053597;28;20036;-67
2021/11/13 02:46:33;;;;;;;25.55;15.60;;;6.60;86.60;;;;;;5056955;28;20538;-67
2021/11/13 02:49:01;;;;;;;24.58;14.05;;;6.60;86.60;;;;;;5055415;28;20594;-67
2021/11/13 02:51:27;;;;;;;22.77;14.32;;;6.60;86.70;;;;;;5055687;28;20035;-67
2021/11/13 02:53:52;;;;;;;23.40;13.98;;;6.60;86.60;;;;;;5055136;28;20036;-64
2021/11/13 02:56:19;;;;;;;24.02;14.20;;;6.60;86.50;;;;;;5053595;28;20545;-67
2021/11/13 02:58:44;;;;;;;29.27;14.80;;;6.60;86.50;;;;;;5054397;28;20048;-67
2021/11/13 03:01:17;;;;;;;24.30;14.50;;;6.60;86.50;;;;;;5057665;28;20028;-67
2021/11/13 03:03:46;;;;;;;26.85;14.90;;;6.60;86.50;;;;;;5055044;28;20036;-67
2021/11/13 03:06:13;;;;;;;21.50;13.18;;;6.60;86.30;;;;;;5053364;28;20496;-65
2021/11/13 03:08:41;;;;;;;27.00;14.60;;;6.60;86.40;;;;;;5055363;28;20033;-66
2021/11/13 03:11:10;;;;;;;28.30;15.05;;;6.50;86.40;;;;;;5054139;28;20037;-67
2021/11/13 03:13:37;;;;;;;33.75;15.73;;;6.50;86.40;;;;;;5059236;28;20575;-67
2021/11/13 03:16:04;;;;;;;27.38;14.65;;;6.50;86.40;;;;;;5059056;28;20037;-67
2021/11/13 03:18:31;;;;;;;32.47;15.00;;;6.50;86.40;;;;;;5058521;28;20048;-67
2021/11/13 03:20:57;;;;;;;24.33;14.57;;;6.40;86.50;;;;;;5059605;28;20021;-67
2021/11/13 03:23:24;;;;;;;26.83;15.57;;;6.40;86.60;;;;;;5060886;28;20043;-67
2021/11/13 03:25:56;;;;;;;25.33;15.02;;;6.40;86.70;;;;;;5056939;28;20039;-66
2021/11/13 03:28:24;;;;;;;24.42;15.35;;;6.40;86.80;;;;;;5056770;28;20094;-66
2021/11/13 03:30:50;;;;;;;29.42;16.88;;;6.40;86.80;;;;;;5057283;28;20044;-67
2021/11/13 03:33:17;;;;;;;27.17;16.27;;;6.40;86.90;;;;;;5054678;28;20041;-67
2021/11/13 03:35:43;;;;;;;26.33;16.17;;;6.40;86.80;;;;;;5056569;28;20044;-67
2021/11/13 03:38:11;;;;;;;27.60;16.30;;;6.40;86.80;;;;;;5054338;28;20052;-66
2021/11/13 03:40:39;;;;;;;24.75;15.45;;;6.40;86.80;;;;;;5052801;28;20056;-67
2021/11/13 03:43:05;;;;;;;26.58;16.73;;;6.40;86.80;;;;;;5053161;28;20032;-66
2021/11/13 03:45:31;;;;;;;28.38;16.58;;;6.40;86.80;;;;;;5057915;28;20395;-66
2021/11/13 03:47:57;;;;;;;29.10;16.48;;;6.40;86.80;;;;;;5052219;28;20040;-66
2021/11/13 03:50:23;;;;;;;28.60;17.83;;;6.40;86.60;;;;;;5050443;28;20064;-67
2021/11/13 03:52:50;;;;;;;28.83;16.15;;;6.50;86.60;;;;;;5052151;28;20033;-67
2021/11/13 03:55:16;;;;;;;29.55;17.00;;;6.40;86.50;;;;;;5053107;28;20392;-67
2021/11/13 03:57:42;;;;;;;30.80;17.05;;;6.40;86.50;;;;;;5052905;28;20036;-66
2021/11/13 04:00:09;;;;;;;31.98;18.48;;;6.40;86.50;;;;;;5052975;28;20029;-66
2021/11/13 04:02:34;;;;;;;30.20;17.50;;;6.40;86.40;;;;;;5053741;28;20159;-67
2021/11/13 04:05:00;;;;;;;31.48;18.10;;;6.40;86.50;;;;;;5055512;28;20500;-67
2021/11/13 04:07:26;;;;;;;31.65;17.80;;;6.40;86.50;;;;;;5051492;28;20021;-67
2021/11/13 04:09:52;;;;;;;28.88;15.88;;;6.40;86.50;;;;;;5055686;28;20036;-67
2021/11/13 04:12:17;;;;;;;32.55;17.52;;;6.40;86.50;;;;;;5053523;28;20098;-67
2021/11/13 04:14:45;;;;;;;29.20;16.70;;;6.40;86.50;;;;;;5056351;28;20033;-66
2021/11/13 04:17:11;;;;;;;35.25;18.05;;;6.40;86.30;;;;;;5055350;28;20044;-66
2021/11/13 04:19:37;;;;;;;32.70;17.65;;;6.50;86.50;;;;;;5051487;28;20497;-66
2021/11/13 04:22:05;;;;;;;31.33;17.70;;;6.40;86.40;;;;;;5055379;28;20029;-66
2021/11/13 04:24:31;;;;;;;34.85;18.60;;;6.40;86.40;;;;;;5053663;28;20555;-67
2021/11/13 04:26:57;;;;;;;31.23;17.88;;;6.50;86.40;;;;;;5052265;28;20112;-66
2021/11/13 04:29:22;;;;;;;30.15;17.63;;;6.40;86.40;;;;;;5054501;28;20036;-67
2021/11/13 04:31:48;;;;;;;33.55;18.42;;;6.40;86.30;;;;;;5053628;28;20036;-67
2021/11/13 04:34:19;;;;;;;31.30;17.77;;;6.40;86.40;;;;;;5053024;28;21009;-66
2021/11/13 04:36:46;;;;;;;30.88;17.45;;;6.50;86.60;;;;;;5050697;28;22681;-67
2021/11/13 04:39:13;;;;;;;31.15;17.55;;;6.50;86.50;;;;;;5054633;28;20064;-65
2021/11/13 04:41:41;;;;;;;30.80;17.85;;;6.50;86.50;;;;;;5056948;28;20032;-67
2021/11/13 04:44:07;;;;;;;29.38;17.58;;;6.50;86.40;;;;;;5056852;28;20041;-67
2021/11/13 04:46:33;;;;;;;28.58;16.85;;;6.50;86.40;;;;;;5053827;28;20029;-67
2021/11/13 04:48:58;;;;;;;34.45;18.67;;;6.50;86.40;;;;;;5057656;28;20036;-66
2021/11/13 04:51:24;;;;;;;51.92;28.83;;;6.50;86.40;;;;;;5054612;28;20040;-66
2021/11/13 04:53:50;;;;;;;228.15;102.90;;;6.50;86.40;;;;;;5050782;28;20654;-67
2021/11/13 04:56:16;;;;;;;52.95;29.48;;;6.50;86.40;;;;;;5054388;28;20037;-68
2021/11/13 04:58:42;;;;;;;38.90;21.33;;;6.50;86.30;;;;;;5052588;28;20460;-66
2021/11/13 05:01:08;;;;;;;32.08;19.63;;;6.50;86.10;;;;;;5056053;28;20392;-67
2021/11/13 05:03:34;;;;;;;30.40;18.42;;;6.60;86.10;;;;;;5055260;28;20036;-67
2021/11/13 05:06:00;;;;;;;29.77;17.65;;;6.60;86.00;;;;;;5051740;28;20113;-66
2021/11/13 05:08:26;;;;;;;33.92;18.50;;;6.60;85.90;;;;;;5053087;28;20052;-67
2021/11/13 05:10:52;;;;;;;37.40;19.60;;;6.50;85.70;;;;;;5053196;28;20067;-66
2021/11/13 05:13:19;;;;;;;31.58;18.92;;;6.50;85.70;;;;;;5052683;28;20130;-67
2021/11/13 05:15:44;;;;;;;33.20;19.30;;;6.50;85.80;;;;;;5052844;28;20108;-66
2021/11/13 05:18:11;;;;;;;30.55;18.15;;;6.50;85.90;;;;;;5052931;28;20475;-67
2021/11/13 05:20:37;;;;;;;30.38;17.33;;;6.50;85.80;;;;;;5054696;28;20087;-67
2021/11/13 05:23:03;;;;;;;31.50;18.25;;;6.50;85.90;;;;;;5050841;28;20033;-66
2021/11/13 05:25:29;;;;;;;28.05;17.45;;;6.50;85.90;;;;;;5051271;28;20089;-67
2021/11/13 05:27:55;;;;;;;30.05;17.95;;;6.50;86.00;;;;;;5053315;28;20065;-66
2021/11/13 05:30:22;;;;;;;33.72;18.15;;;6.50;86.00;;;;;;5054807;28;20075;-67
2021/11/13 05:32:49;;;;;;;29.23;16.80;;;6.50;86.00;;;;;;5051564;28;20043;-66
2021/11/13 05:35:15;;;;;;;29.45;17.00;;;6.50;85.90;;;;;;5057538;28;20065;-65
2021/11/13 05:37:42;;;;;;;29.52;17.80;;;6.50;85.80;;;;;;5052413;28;20403;-66
2021/11/13 05:40:10;;;;;;;29.95;17.90;;;6.50;85.80;;;;;;5056923;28;20021;-67
2021/11/13 05:42:37;;;;;;;35.58;22.98;;;6.50;85.90;;;;;;5053216;28;20130;-66
2021/11/13 05:45:05;;;;;;;30.60;18.02;;;6.50;85.90;;;;;;5059560;28;20058;-67
2021/11/13 05:47:31;;;;;;;28.48;17.70;;;6.40;85.90;;;;;;5058532;28;20294;-67
2021/11/13 05:49:57;;;;;;;27.55;17.38;;;6.40;85.90;;;;;;5058791;28;20556;-67
2021/11/13 05:52:23;;;;;;;33.72;19.15;;;6.40;86.00;;;;;;5054785;28;20025;-66
2021/11/13 05:54:49;;;;;;;31.17;19.00;;;6.40;86.10;;;;;;5053225;28;20103;-66
2021/11/13 05:57:14;;;;;;;29.77;18.20;;;6.50;86.10;;;;;;5056581;28;20037;-69
2021/11/13 05:59:40;;;;;;;27.48;17.85;;;6.50;86.10;;;;;;5056097;28;20036;-67
2021/11/13 06:02:06;;;;;;;29.00;17.50;;;6.50;86.00;;;;;;5053391;28;20154;-66
2021/11/13 06:04:32;;;;;;;30.10;17.40;;;6.50;85.90;;;;;;5056480;28;20036;-66
2021/11/13 06:06:59;;;;;;;33.10;20.75;;;6.50;85.80;;;;;;5057157;28;20032;-66
2021/11/13 06:09:25;;;;;;;30.98;19.02;;;6.50;85.80;;;;;;5054999;28;20496;-66
2021/11/13 06:11:50;;;;;;;27.20;17.33;;;6.50;85.60;;;;;;5056998;28;20055;-66
2021/11/13 06:14:16;;;;;;;29.85;16.60;;;6.50;85.60;;;;;;5061320;28;20037;-65
2021/11/13 06:16:42;;;;;;;29.10;17.80;;;6.50;85.60;;;;;;5060851;28;20032;-66
2021/11/13 06:19:07;;;;;;;30.60;18.33;;;6.50;85.60;;;;;;5060705;28;20040;-63
2021/11/13 06:21:33;;;;;;;29.00;18.42;;;6.50;85.80;;;;;;5062326;28;20024;-66
2021/11/13 06:23:58;;;;;;;28.15;17.52;;;6.50;86.00;;;;;;5059151;28;20118;-67
2021/11/13 06:26:24;;;;;;;31.48;17.95;;;6.50;86.10;;;;;;5059456;28;20029;-66
2021/11/13 06:28:49;;;;;;;31.42;18.30;;;6.50;86.30;;;;;;5061555;28;20056;-66
2021/11/13 06:31:15;;;;;;;35.72;18.15;;;6.50;86.30;;;;;;5059758;28;20040;-65
2021/11/13 06:33:41;;;;;;;37.72;19.30;;;6.50;86.30;;;;;;5059858;28;20128;-66
2021/11/13 06:36:06;;;;;;;31.08;17.52;;;6.50;86.30;;;;;;5064526;28;20040;-66
2021/11/13 06:38:33;;;;;;;34.17;19.30;;;6.60;86.30;;;;;;5058859;28;20515;-65
2021/11/13 06:40:59;;;;;;;34.08;20.48;;;6.50;86.30;;;;;;5059858;28;20108;-68
2021/11/13 06:43:24;;;;;;;32.83;19.23;;;6.60;86.50;;;;;;5059314;28;20284;-68
2021/11/13 06:45:50;;;;;;;34.35;18.73;;;6.60;86.50;;;;;;5059799;28;20063;-68
2021/11/13 06:48:17;;;;;;;31.58;18.55;;;6.60;86.70;;;;;;5059803;28;21143;-67
2021/11/13 06:50:46;;;;;;;31.75;19.13;;;6.60;86.80;;;;;;5061631;28;20043;-67
2021/11/13 06:53:12;;;;;;;34.58;19.65;;;6.60;86.80;;;;;;5057760;28;20078;-68
2021/11/13 06:55:37;;;;;;;33.47;20.10;;;6.70;86.90;;;;;;5059895;28;20507;-68
2021/11/13 06:58:03;;;;;;;33.50;20.63;;;6.70;86.90;;;;;;5057487;28;20041;-66
2021/11/13 07:00:29;;;;;;;29.95;18.55;;;6.70;86.90;;;;;;5057948;28;20066;-66
2021/11/13 07:02:59;;;;;;;30.20;18.73;;;6.70;86.90;;;;;;5054661;28;20661;-68
2021/11/13 07:05:26;;;;;;;32.65;19.35;;;6.70;86.90;;;;;;5059082;28;20036;-68
2021/11/13 07:07:52;;;;;;;31.58;19.05;;;6.70;87.60;;;;;;5059663;28;20040;-66
2021/11/13 07:10:17;;;;;;;32.25;19.30;;;6.60;86.80;;;;;;5059860;28;20282;-68
2021/11/13 07:12:44;;;;;;;29.50;18.63;;;6.60;86.80;;;;;;5059070;28;20052;-68
2021/11/13 07:15:11;;;;;;;30.63;18.63;;;6.60;87.70;;;;;;5062422;28;20031;-66
2021/11/13 07:17:37;;;;;;;32.78;18.98;;;6.70;87.10;;;;;;5059705;28;20036;-66
2021/11/13 07:20:04;;;;;;;35.38;21.08;;;6.70;87.10;;;;;;5060456;28;20039;-66
2021/11/13 07:22:29;;;;;;;33.53;19.67;;;6.70;87.10;;;;;;5058465;28;20189;-66
2021/11/13 07:24:55;;;;;;;38.08;20.08;;;6.80;87.20;;;;;;5060781;28;20044;-65
2021/11/13 07:27:21;;;;;;;39.80;20.95;;;6.80;87.10;;;;;;5060278;28;20122;-68
2021/11/13 07:29:57;;;;;;;33.60;20.90;;;6.80;87.00;;;;;;5061644;28;20025;-68
2021/11/13 07:32:22;;;;;;;31.95;19.15;;;6.90;87.00;;;;;;5058505;28;20029;-66
2021/11/13 07:34:48;;;;;;;36.13;20.45;;;6.90;86.90;;;;;;5058809;28;20043;-68
2021/11/13 07:37:13;;;;;;;37.85;19.30;;;6.90;86.90;;;;;;5057303;28;20047;-68
2021/11/13 07:39:39;;;;;;;31.17;19.17;;;6.90;86.90;;;;;;5056644;28;21647;-67
2021/11/13 07:42:05;;;;;;;30.75;18.83;;;7.00;87.70;;;;;;5059823;28;20112;-68
2021/11/13 07:44:31;;;;;;;29.27;18.83;;;7.00;86.80;;;;;;5059419;28;20123;-68
2021/11/13 07:46:57;;;;;;;26.45;16.98;;;7.10;86.80;;;;;;5060552;28;20440;-68
2021/11/13 07:49:23;;;;;;;25.17;16.25;;;7.10;86.70;;;;;;5060499;28;20029;-68
2021/11/13 07:51:49;;;;;;;26.10;16.20;;;7.10;86.70;;;;;;5059305;28;20618;-66
2021/11/13 07:54:16;;;;;;;27.92;16.92;;;7.10;86.70;;;;;;5060265;28;20389;-66
2021/11/13 07:56:42;;;;;;;26.25;16.95;;;7.20;86.90;;;;;;5058378;28;20029;-68
2021/11/13 07:59:08;;;;;;;27.98;17.48;;;7.20;86.90;;;;;;5061811;28;20101;-68
2021/11/13 08:01:34;;;;;;;23.13;15.52;;;7.20;86.90;;;;;;5058396;28;20033;-67
2021/11/13 08:04:00;;;;;;;22.70;15.52;;;7.20;86.90;;;;;;5059031;28;20028;-68
2021/11/13 08:06:26;;;;;;;23.02;15.85;;;7.30;87.00;;;;;;5059466;28;20070;-68
2021/11/13 08:08:51;;;;;;;30.77;22.95;;;7.30;87.80;;;;;;5060188;28;20561;-68
2021/11/13 08:11:17;;;;;;;22.65;15.85;;;7.30;86.90;;;;;;5059061;28;20041;-64
2021/11/13 08:13:43;;;;;;;22.05;15.15;;;7.30;87.00;;;;;;5060264;28;20055;-68
2021/11/13 08:16:09;;;;;;;21.08;14.68;;;7.40;87.10;;;;;;5060189;28;20043;-67
2021/11/13 08:18:35;;;;;;;23.60;16.13;;;7.40;87.00;;;;;;5057532;28;20127;-68
2021/11/13 08:21:02;;;;;;;22.85;16.02;;;7.40;87.00;;;;;;5060917;28;20146;-68
2021/11/13 08:23:28;;;;;;;23.90;15.70;;;7.50;87.10;;;;;;5059518;28;20032;-68
2021/11/13 08:25:54;;;;;;;22.48;15.40;;;7.50;86.90;;;;;;5059392;28;20033;-66
2021/11/13 08:28:21;;;;;;;25.27;16.60;;;7.50;87.00;;;;;;5058176;28;20120;-68
2021/11/13 08:30:48;;;;;;;23.52;15.48;;;7.50;86.90;;;;;;5057727;28;20524;-67
2021/11/13 08:33:14;;;;;;;25.33;16.58;;;7.50;87.00;;;;;;5059756;28;20047;-68
2021/11/13 08:35:43;;;;;;;24.08;15.50;;;7.60;87.00;;;;;;5047079;28;20113;-64
2021/11/13 08:38:11;;;;;;;22.92;15.35;;;7.60;86.90;;;;;;5052707;28;20078;-68
2021/11/13 08:40:37;;;;;;;23.73;15.93;;;7.60;86.90;;;;;;5052641;28;20033;-65
2021/11/13 08:43:03;;;;;;;21.85;15.35;;;7.70;87.00;;;;;;5053260;28;20028;-66
2021/11/13 08:45:29;;;;;;;24.83;15.68;;;7.70;87.00;;;;;;5048514;28;20085;-66
2021/11/13 08:47:55;;;;;;;24.23;16.02;;;7.70;86.90;;;;;;5048601;28;20029;-65
2021/11/13 08:50:24;;;;;;;23.75;16.55;;;7.80;87.00;;;;;;5051797;28;20041;-67
2021/11/13 08:52:51;;;;;;;25.40;16.13;;;7.80;86.90;;;;;;5054583;28;20056;-68
2021/11/13 08:55:19;;;;;;;24.58;16.17;;;7.80;86.80;;;;;;5053033;28;20041;-65
2021/11/13 08:57:46;;;;;;;23.98;15.65;;;7.90;86.80;;;;;;5054636;28;20025;-68
2021/11/13 09:00:15;;;;;;;24.48;16.25;;;7.90;86.70;;;;;;5055125;28;20029;-68
2021/11/13 09:02:41;;;;;;;24.90;15.93;;;7.90;86.40;;;;;;5053097;28;20056;-68
2021/11/13 09:05:08;;;;;;;22.83;15.38;;;7.90;86.30;;;;;;5052716;28;20541;-69
2021/11/13 09:07:35;;;;;;;21.45;15.00;;;7.90;86.30;;;;;;5053602;28;20032;-68
2021/11/13 09:10:03;;;;;;;21.42;14.65;;;7.80;86.30;;;;;;5054358;28;20029;-68
2021/11/13 09:12:31;;;;;;;19.77;14.65;;;7.90;86.30;;;;;;5051724;28;20044;-68
2021/11/13 09:15:03;;;;;;;22.38;16.00;;;7.90;86.30;;;;;;5053365;28;20033;-67
2021/11/13 09:17:29;;;;;;;21.00;15.43;;;7.90;86.30;;;;;;5054403;28;20036;-68
2021/11/13 09:19:55;;;;;;;21.08;15.45;;;7.90;86.20;;;;;;5053777;28;20040;-68
2021/11/13 09:22:21;;;;;;;20.88;14.75;;;7.90;85.90;;;;;;5052605;28;20043;-68
2021/11/13 09:24:46;;;;;;;21.23;15.40;;;7.90;85.90;;;;;;5053601;28;20067;-68
2021/11/13 09:27:13;;;;;;;19.00;13.65;;;7.90;86.00;;;;;;5054530;28;20561;-66
2021/11/13 09:29:38;;;;;;;19.23;13.68;;;7.90;86.00;;;;;;5052370;28;20040;-68
2021/11/13 09:32:04;;;;;;;20.15;13.75;;;7.90;86.00;;;;;;5054442;28;20032;-68
2021/11/13 09:34:30;;;;;;;19.35;13.90;;;7.90;85.90;;;;;;5053821;28;20500;-66
2021/11/13 09:36:56;;;;;;;20.25;14.73;;;7.90;85.90;;;;;;5054411;28;20051;-68
2021/11/13 09:39:21;;;;;;;21.35;14.50;;;7.90;86.00;;;;;;5056972;28;20593;-68
2021/11/13 09:41:48;;;;;;;19.55;13.43;;;7.90;85.90;;;;;;5051872;28;20033;-68
2021/11/13 09:44:14;;;;;;;24.50;15.80;;;8.00;86.00;;;;;;5055514;28;20041;-67
2021/11/13 09:46:41;;;;;;;27.65;19.08;;;8.00;85.90;;;;;;5053113;28;20072;-68
2021/11/13 09:49:08;;;;;;;24.20;16.92;;;8.00;85.90;;;;;;5051975;28;20526;-66
2021/11/13 09:51:34;;;;;;;21.15;15.27;;;8.00;85.90;;;;;;5053668;28;20408;-67
2021/11/13 09:53:59;;;;;;;20.42;13.63;;;8.00;85.90;;;;;;5053837;28;20036;-66
2021/11/13 09:56:26;;;;;;;22.00;15.63;;;8.10;85.80;;;;;;5051192;28;20063;-69
2021/11/13 09:58:52;;;;;;;19.38;13.52;;;8.00;85.70;;;;;;5053057;28;20052;-68
2021/11/13 10:01:18;;;;;;;21.65;15.10;;;8.10;85.70;;;;;;5054297;28;21588;-68
2021/11/13 10:03:47;;;;;;;20.65;13.93;;;8.10;85.50;;;;;;5053320;28;20534;-66
2021/11/13 10:06:13;;;;;;;23.25;14.23;;;8.10;85.50;;;;;;5049862;28;20166;-65
2021/11/13 10:08:40;;;;;;;21.67;14.18;;;8.10;85.40;;;;;;5055860;28;20526;-68
2021/11/13 10:11:09;;;;;;;19.45;12.75;;;8.10;85.50;;;;;;5053084;28;20115;-67
2021/11/13 10:13:38;;;;;;;21.83;16.15;;;8.10;85.50;;;;;;5055735;28;20036;-68
2021/11/13 10:16:28;;;;;;;20.35;14.55;;;8.10;85.50;;;;;;5050671;28;20028;-66
2021/11/13 10:18:53;;;;;;;18.25;13.00;;;8.20;85.60;;;;;;5053786;28;20141;-67
2021/11/13 10:21:21;;;;;;;18.13;13.38;;;8.20;85.50;;;;;;5056596;28;20037;-67
2021/11/13 10:24:09;;;;;;;19.48;13.13;;;8.20;85.50;;;;;;5057914;28;20033;-68
2021/11/13 10:26:40;;;;;;;16.98;12.35;;;8.20;85.50;;;;;;5055628;28;20036;-68
2021/11/13 10:29:27;;;;;;;17.77;12.57;;;8.30;85.50;;;;;;5056924;28;20062;-68
2021/11/13 10:32:00;;;;;;;17.33;11.93;;;8.30;85.40;;;;;;5057747;28;20393;-68
2021/11/13 10:34:34;;;;;;;20.40;13.35;;;8.30;85.30;;;;;;5056769;28;20033;-68
2021/11/13 10:37:14;;;;;;;15.90;11.93;;;8.30;85.30;;;;;;5058168;28;20029;-65
2021/11/13 10:39:42;;;;;;;17.10;12.73;;;8.30;85.20;;;;;;5056879;28;20060;-64
2021/11/13 10:42:14;;;;;;;18.05;12.27;;;8.40;85.30;;;;;;5057508;28;20108;-68
2021/11/13 10:44:50;;;;;;;19.30;12.60;;;8.40;85.10;;;;;;5051518;28;20036;-66
2021/11/13 10:47:15;;;;;;;16.42;11.93;;;8.40;85.00;;;;;;5051056;28;20036;-66
2021/11/13 10:49:42;;;;;;;15.98;11.60;;;8.40;84.80;;;;;;5053819;28;20904;-66
2021/11/13 10:52:09;;;;;;;14.35;11.35;;;8.40;85.10;;;;;;5049536;28;20076;-64
2021/11/13 10:54:37;;;;;;;16.10;11.80;;;8.40;84.60;;;;;;5050048;28;20040;-65
2021/11/13 10:57:05;;;;;;;20.35;14.23;;;8.40;84.60;;;;;;5054380;28;20029;-68
2021/11/13 10:59:42;;;;;;;17.42;11.43;;;8.40;84.50;;;;;;5055913;28;20421;-68
2021/11/13 11:02:13;;;;;;;15.45;11.07;;;8.40;84.60;;;;;;5055671;28;20559;-68
2021/11/13 11:04:40;;;;;;;14.50;11.18;;;8.50;84.60;;;;;;5058106;28;20024;-68
2021/11/13 11:07:08;;;;;;;16.15;11.35;;;8.50;84.60;;;;;;5052431;28;20043;-67
2021/11/13 11:09:42;;;;;;;14.75;10.77;;;8.50;84.50;;;;;;5057047;28;20446;-67
2021/11/13 11:12:12;;;;;;;15.48;11.23;;;8.50;84.50;;;;;;5053696;28;20167;-66
2021/11/13 11:14:46;;;;;;;14.82;11.95;;;8.50;84.30;;;;;;5055632;28;20029;-67
2021/11/13 11:17:15;;;;;;;17.45;12.18;;;8.50;84.30;;;;;;5055802;28;20033;-67
2021/11/13 11:19:43;;;;;;;19.92;14.20;;;8.50;84.30;;;;;;5055771;28;20060;-68
2021/11/13 11:22:20;;;;;;;17.75;12.85;;;8.50;85.20;;;;;;5057346;28;20064;-67
2021/11/13 11:24:57;;;;;;;16.10;12.27;;;8.60;84.50;;;;;;5058271;28;20036;-68
2021/11/13 11:27:46;;;;;;;18.02;12.80;;;8.60;84.50;;;;;;5058294;28;20039;-67
2021/11/13 11:30:21;;;;;;;17.38;11.98;;;8.60;84.60;;;;;;5058326;28;20474;-67
2021/11/13 11:32:50;;;;;;;17.30;11.85;;;8.60;84.70;;;;;;5056822;28;20090;-67
2021/11/13 11:35:19;;;;;;;19.20;13.27;;;8.60;84.80;;;;;;5059503;28;20516;-66
2021/11/13 11:37:57;;;;;;;19.42;13.27;;;8.60;84.80;;;;;;5058537;28;20029;-65
2021/11/13 11:40:35;;;;;;;16.85;12.85;;;8.60;85.10;;;;;;5058476;28;20029;-67
2021/11/13 11:43:01;;;;;;;17.92;12.85;;;8.60;85.20;;;;;;5054630;28;20094;-67
2021/11/13 11:45:31;;;;;;;17.83;12.98;;;8.60;85.20;;;;;;5057765;28;20033;-67
2021/11/13 11:47:58;;;;;;;21.02;13.73;;;8.60;85.40;;;;;;5054063;28;20030;-68
2021/11/13 11:50:29;;;;;;;20.67;12.52;;;8.50;85.40;;;;;;5055345;28;20033;-67
2021/11/13 11:53:05;;;;;;;20.00;13.98;;;8.60;85.60;;;;;;5054348;28;20331;-67
2021/11/13 11:55:30;;;;;;;19.67;14.63;;;8.60;85.70;;;;;;5055531;28;20437;-67
2021/11/13 11:57:59;;;;;;;21.02;13.70;;;8.60;85.60;;;;;;5055122;28;20032;-67
2021/11/13 12:00:28;;;;;;;21.40;13.68;;;8.60;85.70;;;;;;5055834;28;20170;-67
2021/11/13 12:02:57;;;;;;;18.38;13.18;;;8.60;85.70;;;;;;5055762;28;20462;-68
2021/11/13 12:05:27;;;;;;;17.75;12.57;;;8.60;85.70;;;;;;5053596;28;20487;-65
2021/11/13 12:07:54;;;;;;;17.60;12.00;;;8.70;85.80;;;;;;5056158;28;20512;-67
2021/11/13 12:10:20;;;;;;;20.27;12.77;;;8.70;85.80;;;;;;5055280;28;20373;-67
2021/11/13 12:13:07;;;;;;;18.90;12.82;;;8.70;85.80;;;;;;5055920;28;20035;-68
2021/11/13 12:15:42;;;;;;;19.13;12.35;;;8.70;85.90;;;;;;5051363;28;20098;-67
2021/11/13 12:18:19;;;;;;;20.02;13.32;;;8.70;85.50;;;;;;5054202;28;20061;-67
2021/11/13 12:20:46;;;;;;;18.63;13.38;;;8.70;85.70;;;;;;5056331;28;20102;-65
2021/11/13 12:23:24;;;;;;;20.88;13.88;;;8.70;85.60;;;;;;5052650;28;20032;-67
2021/11/13 12:25:59;;;;;;;22.05;14.15;;;8.70;85.80;;;;;;5052404;28;20500;-66
2021/11/13 12:28:26;;;;;;;15.85;10.10;;;8.70;85.90;;;;;;5051233;28;20032;-67
2021/11/13 12:30:52;;;;;;;17.17;12.68;;;8.60;85.80;;;;;;5056505;28;20086;-67
2021/11/13 12:33:26;;;;;;;18.90;12.35;;;8.60;85.80;;;;;;5051600;28;20044;-66
2021/11/13 12:36:11;;;;;;;19.90;13.82;;;8.60;86.00;;;;;;5056082;28;20152;-67